createdAt,value
2023-09-12T00:02:06.391Z,17.20
2023-09-12T00:05:09.566Z,17.21
2023-09-12T00:08:11.170Z,17.16
2023-09-12T00:11:12.930Z,17.15
2023-09-12T00:14:18.841Z,17.12
2023-09-12T00:17:20.643Z,17.05
2023-09-12T00:20:22.282Z,17.10
2023-09-12T00:23:24.851Z,17.05
2023-09-12T00:26:26.484Z,17.04
2023-09-12T00:29:28.156Z,17.02
2023-09-12T00:32:29.795Z,17.00
2023-09-12T00:35:31.450Z,16.99
2023-09-12T00:38:33.050Z,16.94
2023-09-12T00:41:34.644Z,16.92
2023-09-12T00:44:36.276Z,16.93
2023-09-12T00:47:38.370Z,16.91
2023-09-12T00:50:41.646Z,16.90
2023-09-12T00:53:44.291Z,16.87
2023-09-12T00:56:46.935Z,16.83
2023-09-12T00:59:50.365Z,16.81
2023-09-12T01:02:53.848Z,16.79
2023-09-12T01:05:55.750Z,16.76
2023-09-12T01:08:57.486Z,16.80
2023-09-12T01:11:59.510Z,16.77
2023-09-12T01:15:01.449Z,16.78
2023-09-12T01:18:03.543Z,16.75
2023-09-12T01:21:20.264Z,16.79
2023-09-12T01:24:27.863Z,16.81
2023-09-12T01:27:33.412Z,16.83
2023-09-12T01:30:36.688Z,16.93
2023-09-12T01:33:38.416Z,16.97
2023-09-12T01:36:40.184Z,17.17
2023-09-12T01:39:42.509Z,17.20
2023-09-12T01:42:49.383Z,17.17
2023-09-12T01:45:53.111Z,17.14
2023-09-12T01:48:56.534Z,17.09
2023-09-12T01:52:00.286Z,16.97
2023-09-12T01:55:03.179Z,16.79
2023-09-12T01:58:04.818Z,16.71
2023-09-12T02:01:06.469Z,16.60
2023-09-12T02:04:10.090Z,16.45
2023-09-12T02:07:11.743Z,16.32
2023-09-12T02:10:13.982Z,16.16
2023-09-12T02:13:15.647Z,16.05
2023-09-12T02:16:17.310Z,16.11
2023-09-12T02:19:18.959Z,16.05
2023-09-12T02:22:20.615Z,15.84
2023-09-12T02:25:22.245Z,15.69
2023-09-12T02:28:23.909Z,15.55
2023-09-12T02:31:25.632Z,15.56
2023-09-12T02:34:27.424Z,15.52
2023-09-12T02:37:29.104Z,15.37
2023-09-12T02:40:30.734Z,15.33
2023-09-12T02:43:33.555Z,15.23
2023-09-12T02:46:35.864Z,15.20
2023-09-12T02:49:37.491Z,15.17
2023-09-12T02:52:39.123Z,15.14
2023-09-12T02:55:42.001Z,15.15
2023-09-12T02:58:43.969Z,15.09
2023-09-12T03:01:45.641Z,15.16
2023-09-12T03:04:47.998Z,15.13
2023-09-12T03:07:50.085Z,15.14
2023-09-12T03:10:58.561Z,15.08
2023-09-12T03:14:00.233Z,15.02
2023-09-12T03:17:01.876Z,15.02
2023-09-12T03:20:07.581Z,15.02
2023-09-12T03:23:09.196Z,15.09
2023-09-12T03:26:10.859Z,15.09
2023-09-12T03:29:12.535Z,15.07
2023-09-12T03:32:14.136Z,15.01
2023-09-12T03:35:16.150Z,14.93
2023-09-12T03:38:17.748Z,14.98
2023-09-12T03:41:19.379Z,14.96
2023-09-12T03:44:21.001Z,14.79
2023-09-12T03:47:22.620Z,14.84
2023-09-12T03:50:24.203Z,14.73
2023-09-12T03:53:27.346Z,14.72
2023-09-12T03:56:29.017Z,14.73
2023-09-12T03:59:30.655Z,14.73
2023-09-12T04:02:32.345Z,14.74
2023-09-12T04:05:34.086Z,14.72
2023-09-12T04:08:35.718Z,14.71
2023-09-12T04:11:46.572Z,14.63
2023-09-12T04:14:52.348Z,14.50
2023-09-12T04:17:54.616Z,14.57
2023-09-12T04:20:58.254Z,14.52
2023-09-12T04:23:59.860Z,14.51
2023-09-12T04:27:01.647Z,14.49
2023-09-12T04:30:03.469Z,14.47
2023-09-12T04:33:05.309Z,14.52
2023-09-12T04:36:07.031Z,14.55
2023-09-12T04:39:08.941Z,14.56
2023-09-12T04:42:10.616Z,14.68
2023-09-12T04:45:12.386Z,14.70
2023-09-12T04:48:14.076Z,14.75
2023-09-12T04:51:15.853Z,14.83
2023-09-12T04:54:17.637Z,14.96
2023-09-12T04:57:19.282Z,15.06
2023-09-12T05:00:21.086Z,15.15
2023-09-12T05:03:24.874Z,15.26
2023-09-12T05:06:28.848Z,15.36
2023-09-12T05:09:30.585Z,15.57
2023-09-12T05:12:32.248Z,15.73
2023-09-12T05:15:33.962Z,15.87
2023-09-12T05:18:35.602Z,15.95
2023-09-12T05:21:37.265Z,16.19
2023-09-12T05:24:39.149Z,16.35
2023-09-12T05:27:40.782Z,16.56
2023-09-12T05:30:43.726Z,16.74
2023-09-12T05:33:45.398Z,16.90
2023-09-12T05:36:47.022Z,17.14
2023-09-12T05:39:48.822Z,17.30
2023-09-12T05:42:50.475Z,17.53
2023-09-12T05:45:52.228Z,17.84
2023-09-12T05:48:54.113Z,18.06
2023-09-12T05:51:55.799Z,18.24
2023-09-12T05:54:57.416Z,18.43
2023-09-12T05:57:59.032Z,18.68
2023-09-12T06:01:00.669Z,18.99
2023-09-12T06:04:02.908Z,19.16
2023-09-12T06:07:05.315Z,19.34
2023-09-12T06:10:07.565Z,19.52
2023-09-12T06:13:10.644Z,19.70
2023-09-12T06:16:14.469Z,19.88
2023-09-12T06:19:17.154Z,19.99
2023-09-12T06:22:19.160Z,20.02
2023-09-12T06:25:20.851Z,20.14
2023-09-12T06:28:27.384Z,20.42
2023-09-12T06:31:29.074Z,20.53
2023-09-12T06:34:30.760Z,20.65
2023-09-12T06:37:32.670Z,20.94
2023-09-12T06:40:34.385Z,21.00
2023-09-12T06:43:35.999Z,21.30
2023-09-12T06:46:38.913Z,21.49
2023-09-12T06:49:40.795Z,21.63
2023-09-12T06:52:42.617Z,22.03
2023-09-12T06:55:44.292Z,22.30
2023-09-12T06:58:45.891Z,22.46
2023-09-12T07:01:47.581Z,22.66
2023-09-12T07:04:49.250Z,23.04
2023-09-12T07:07:50.860Z,22.95
2023-09-12T07:10:55.383Z,23.06
2023-09-12T07:13:57.007Z,23.51
2023-09-12T07:16:58.838Z,23.84
2023-09-12T07:20:00.552Z,23.93
2023-09-12T07:23:02.179Z,23.93
2023-09-12T07:26:03.876Z,24.18
2023-09-12T07:29:06.816Z,24.48
2023-09-12T07:32:08.565Z,24.68
2023-09-12T07:35:10.461Z,24.60
2023-09-12T07:38:12.106Z,24.56
2023-09-12T07:41:14.040Z,24.92
2023-09-12T07:44:17.342Z,25.00
2023-09-12T07:47:20.429Z,25.18
2023-09-12T07:50:22.133Z,25.27
2023-09-12T07:53:23.869Z,25.36
2023-09-12T07:56:25.518Z,25.63
2023-09-12T07:59:27.191Z,25.39
2023-09-12T08:02:28.847Z,25.37
2023-09-12T08:05:30.456Z,25.40
2023-09-12T08:08:32.743Z,25.74
2023-09-12T08:11:34.386Z,25.87
2023-09-12T08:14:35.993Z,26.00
2023-09-12T08:17:37.775Z,26.10
2023-09-12T08:20:39.661Z,26.38
2023-09-12T08:23:41.798Z,26.66
2023-09-12T08:26:43.707Z,26.83
2023-09-12T08:29:47.931Z,26.85
2023-09-12T08:32:49.533Z,27.37
2023-09-12T08:35:51.786Z,27.57
2023-09-12T08:38:53.416Z,27.75
2023-09-12T08:41:55.518Z,28.09
2023-09-12T08:44:57.372Z,28.41
2023-09-12T08:48:02.240Z,28.37
2023-09-12T08:51:05.655Z,28.79
2023-09-12T08:54:08.594Z,28.69
2023-09-12T08:57:14.130Z,29.11
2023-09-12T09:00:16.100Z,29.05
2023-09-12T09:03:18.563Z,29.27
2023-09-12T09:06:23.717Z,29.19
2023-09-12T09:09:25.437Z,29.53
2023-09-12T09:12:28.514Z,29.38
2023-09-12T09:15:31.961Z,29.49
2023-09-12T09:18:53.144Z,29.66
2023-09-12T09:22:07.127Z,30.28
2023-09-12T09:25:15.883Z,30.21
2023-09-12T09:28:19.467Z,30.60
2023-09-12T09:31:22.779Z,30.57
2023-09-12T09:34:25.346Z,30.78
2023-09-12T09:37:27.446Z,30.85
2023-09-12T09:40:29.186Z,31.30
2023-09-12T09:43:33.004Z,31.52
2023-09-12T09:46:35.942Z,31.49
2023-09-12T09:49:37.646Z,31.67
2023-09-12T09:52:39.842Z,31.73
2023-09-12T09:55:43.365Z,31.83
2023-09-12T09:58:56.781Z,32.28
2023-09-12T10:02:00.231Z,32.81
2023-09-12T10:05:06.291Z,32.84
2023-09-12T10:08:10.933Z,32.82
2023-09-12T10:11:17.006Z,33.42
2023-09-12T10:14:21.049Z,33.23
2023-09-12T10:17:27.518Z,33.71
2023-09-12T10:20:38.574Z,34.06
2023-09-12T10:23:46.682Z,33.60
2023-09-12T10:26:51.684Z,33.48
2023-09-12T10:29:54.331Z,34.04
2023-09-12T10:32:56.521Z,33.89
2023-09-12T10:35:59.613Z,34.48
2023-09-12T10:39:02.396Z,35.03
2023-09-12T10:42:06.163Z,35.02
2023-09-12T10:45:09.543Z,35.26
2023-09-12T10:48:12.439Z,34.97
2023-09-12T10:51:15.006Z,35.18
2023-09-12T10:54:24.974Z,34.65
2023-09-12T10:57:26.773Z,34.83
2023-09-12T11:00:28.469Z,35.15
2023-09-12T11:03:30.370Z,35.37
2023-09-12T11:06:32.507Z,35.45
2023-09-12T11:09:34.170Z,35.35
2023-09-12T11:12:37.267Z,35.98
2023-09-12T11:16:25.132Z,35.91
2023-09-12T11:19:27.873Z,35.58
2023-09-12T11:22:35.931Z,36.21
2023-09-12T11:25:37.738Z,36.56
2023-09-12T11:28:40.349Z,35.66
2023-09-12T11:31:43.630Z,35.97
2023-09-12T11:34:48.335Z,36.38
2023-09-12T11:37:58.851Z,36.53
2023-09-12T11:41:01.292Z,36.83
2023-09-12T11:44:05.226Z,36.68
2023-09-12T11:47:08.776Z,36.85
2023-09-12T11:50:32.887Z,38.17
2023-09-12T11:53:36.932Z,36.86
2023-09-12T11:56:40.246Z,37.08
2023-09-12T11:59:46.120Z,36.81
2023-09-12T12:02:47.899Z,36.69
2023-09-12T12:05:50.040Z,37.08
2023-09-12T12:08:55.693Z,37.30
2023-09-12T12:12:01.471Z,36.55
2023-09-12T12:15:03.312Z,37.43
2023-09-12T12:18:05.635Z,37.15
2023-09-12T12:21:07.305Z,35.75
2023-09-12T12:24:14.216Z,37.40
2023-09-12T12:27:16.556Z,38.01
2023-09-12T12:30:19.661Z,37.78
2023-09-12T12:34:11.527Z,38.48
2023-09-12T12:36:53.403Z,37.74
2023-09-12T12:39:58.072Z,38.30
2023-09-12T12:43:00.304Z,38.14
2023-09-12T12:46:02.287Z,37.72
2023-09-12T12:49:06.273Z,37.73
2023-09-12T12:52:11.424Z,37.78
2023-09-12T12:55:15.307Z,36.51
2023-09-12T12:58:16.971Z,37.10
2023-09-12T13:01:19.127Z,36.10
2023-09-12T13:04:21.015Z,37.02
2023-09-12T13:07:22.691Z,37.52
2023-09-12T13:10:25.052Z,36.53
2023-09-12T13:13:27.900Z,35.86
2023-09-12T13:16:29.914Z,36.58
2023-09-12T13:19:31.579Z,36.99
2023-09-12T13:22:33.198Z,36.56
2023-09-12T13:25:34.809Z,36.14
2023-09-12T13:28:37.163Z,34.93
2023-09-12T13:31:39.032Z,35.27
2023-09-12T13:34:40.724Z,34.61
2023-09-12T13:37:42.353Z,33.68
2023-09-12T13:40:46.316Z,34.56
2023-09-12T13:43:48.263Z,35.60
2023-09-12T13:46:50.001Z,35.86
2023-09-12T13:49:54.670Z,34.24
2023-09-12T13:52:57.542Z,34.25
2023-09-12T13:56:12.851Z,34.60
2023-09-12T13:59:18.793Z,34.58
2023-09-12T14:02:20.739Z,33.90
2023-09-12T14:05:23.076Z,34.40
2023-09-12T14:08:25.658Z,33.51
2023-09-12T14:11:33.974Z,33.97
2023-09-12T14:14:37.186Z,32.80
2023-09-12T14:17:42.460Z,32.76
2023-09-12T14:20:51.234Z,32.61
2023-09-12T14:23:53.208Z,32.82
2023-09-12T14:26:55.483Z,33.00
2023-09-12T14:29:57.241Z,32.65
2023-09-12T14:32:58.910Z,32.28
2023-09-12T14:36:02.447Z,32.36
2023-09-12T14:39:04.281Z,32.00
2023-09-12T14:42:09.841Z,31.81
2023-09-12T14:45:11.715Z,31.13
2023-09-12T14:48:13.516Z,30.97
2023-09-12T14:51:22.484Z,30.80
2023-09-12T14:54:28.356Z,30.76
2023-09-12T14:57:30.627Z,30.71
2023-09-12T15:00:34.072Z,30.61
2023-09-12T15:03:37.821Z,30.54
2023-09-12T15:06:40.170Z,30.48
2023-09-12T15:09:41.866Z,30.49
2023-09-12T15:12:43.587Z,30.36
2023-09-12T15:15:45.280Z,30.34
2023-09-12T15:18:47.102Z,30.39
2023-09-12T15:21:48.731Z,30.27
2023-09-12T15:24:50.500Z,30.41
2023-09-12T15:27:52.250Z,30.32
2023-09-12T15:30:54.049Z,30.35
2023-09-12T15:33:57.615Z,30.26
2023-09-12T15:40:17.710Z,30.35
2023-09-12T15:43:24.721Z,30.29
2023-09-12T15:46:34.791Z,30.03
2023-09-12T15:49:37.701Z,30.07
2023-09-12T15:52:40.171Z,29.99
2023-09-12T15:55:41.818Z,29.95
2023-09-12T15:58:48.045Z,29.95
2023-09-12T16:01:49.722Z,29.89
2023-09-12T16:04:51.662Z,30.02
2023-09-12T16:07:53.448Z,30.24
2023-09-12T16:10:55.082Z,30.06
2023-09-12T16:13:56.738Z,29.70
2023-09-12T16:16:59.761Z,29.20
2023-09-12T16:20:01.458Z,28.77
2023-09-12T16:23:03.141Z,28.33
2023-09-12T16:26:04.853Z,28.01
2023-09-12T16:29:06.916Z,27.47
2023-09-12T16:32:08.808Z,27.29
2023-09-12T16:35:10.429Z,27.00
2023-09-12T16:38:12.291Z,26.65
2023-09-12T16:41:14.009Z,26.40
2023-09-12T16:44:15.642Z,26.22
2023-09-12T16:47:17.280Z,26.04
2023-09-12T16:50:19.982Z,25.84
2023-09-12T16:53:21.791Z,25.58
2023-09-12T16:56:23.361Z,25.27
2023-09-12T16:59:25.040Z,25.15
2023-09-12T17:02:27.386Z,24.95
2023-09-12T17:05:29.158Z,24.76
2023-09-12T17:08:31.379Z,24.63
2023-09-12T17:11:33.116Z,24.48
2023-09-12T17:14:34.792Z,24.31
2023-09-12T17:17:36.519Z,24.11
2023-09-12T17:20:38.168Z,23.92
2023-09-12T17:23:39.801Z,23.74
2023-09-12T17:26:41.417Z,23.55
2023-09-12T17:29:43.034Z,23.30
2023-09-12T17:32:44.614Z,23.11
2023-09-12T17:35:46.235Z,22.94
2023-09-12T17:38:48.692Z,22.81
2023-09-12T17:41:50.270Z,22.68
2023-09-12T17:44:52.040Z,22.60
2023-09-12T17:47:54.496Z,22.53
2023-09-12T17:50:56.291Z,22.48
2023-09-12T17:53:57.922Z,22.40
2023-09-12T17:56:59.584Z,22.22
2023-09-12T18:00:01.170Z,22.18
2023-09-12T18:03:02.894Z,22.26
2023-09-12T18:06:04.612Z,22.28
2023-09-12T18:09:06.892Z,22.26
2023-09-12T18:12:08.534Z,22.20
2023-09-12T18:15:11.727Z,22.15
2023-09-12T18:18:13.544Z,22.13
2023-09-12T18:21:15.268Z,22.01
2023-09-12T18:24:17.918Z,21.88
2023-09-12T18:27:19.517Z,21.81
2023-09-12T18:30:21.200Z,21.73
2023-09-12T18:33:22.817Z,21.62
2023-09-12T18:36:27.369Z,21.53
2023-09-12T18:39:29.017Z,21.42
2023-09-12T18:42:31.706Z,21.33
2023-09-12T18:45:33.451Z,21.33
2023-09-12T18:48:37.091Z,21.30
2023-09-12T18:51:38.842Z,21.23
2023-09-12T18:54:40.603Z,21.21
2023-09-12T18:57:43.185Z,21.15
2023-09-12T19:00:45.811Z,21.09
2023-09-12T19:03:47.980Z,21.05
2023-09-12T19:06:50.979Z,20.98
2023-09-12T19:09:52.623Z,20.94
2023-09-12T19:12:54.345Z,20.82
2023-09-12T19:15:56.017Z,20.68
2023-09-12T19:18:57.875Z,20.65
2023-09-12T19:21:59.622Z,20.60
2023-09-12T19:25:01.316Z,20.49
2023-09-12T19:28:04.172Z,20.41
2023-09-12T19:31:06.131Z,20.35
2023-09-12T19:34:09.182Z,20.30
2023-09-12T19:37:11.193Z,20.29
2023-09-12T19:40:13.208Z,20.22
2023-09-12T19:43:15.095Z,20.21
2023-09-12T19:46:16.873Z,20.21
2023-09-12T19:49:18.605Z,20.13
2023-09-12T19:52:21.705Z,20.11
2023-09-12T19:55:25.628Z,20.08
2023-09-12T19:58:27.972Z,19.96
2023-09-12T20:01:29.691Z,19.89
2023-09-12T20:04:34.086Z,19.86
2023-09-12T20:07:37.084Z,19.71
2023-09-12T20:10:40.064Z,19.63
2023-09-12T20:13:41.973Z,19.59
2023-09-12T20:16:45.176Z,19.50
2023-09-12T20:19:46.829Z,19.42
2023-09-12T20:22:49.587Z,19.41
2023-09-12T20:25:54.547Z,19.37
2023-09-12T20:28:56.436Z,19.41
2023-09-12T20:31:58.102Z,19.34
2023-09-12T20:35:01.371Z,19.27
2023-09-12T20:38:05.777Z,19.17
2023-09-12T20:41:07.609Z,19.13
2023-09-12T20:44:09.203Z,19.07
2023-09-12T20:47:10.770Z,19.05
2023-09-12T20:50:19.866Z,18.93
2023-09-12T20:53:21.691Z,18.84
2023-09-12T20:56:23.329Z,18.70
2023-09-12T20:59:24.954Z,18.68
2023-09-12T21:02:26.747Z,18.79
2023-09-12T21:05:28.453Z,18.78
2023-09-12T21:08:30.094Z,18.73
2023-09-12T21:11:31.742Z,18.77
2023-09-12T21:14:35.257Z,18.73
2023-09-12T21:17:38.531Z,18.61
2023-09-12T21:20:40.192Z,18.63
2023-09-12T21:23:42.412Z,18.68
2023-09-12T21:26:44.814Z,18.69
2023-09-12T21:29:47.018Z,18.73
2023-09-12T21:32:48.664Z,18.68
2023-09-12T21:35:50.286Z,18.69
2023-09-12T21:38:51.879Z,18.65
2023-09-12T21:41:56.706Z,18.54
2023-09-12T21:44:58.304Z,18.56
2023-09-12T21:48:00.530Z,18.49
2023-09-12T21:51:02.185Z,18.47
2023-09-12T21:54:04.011Z,18.40
2023-09-12T21:57:05.654Z,18.43
2023-09-12T22:00:34.541Z,18.38
2023-09-12T22:03:37.085Z,18.30
2023-09-12T22:06:38.872Z,18.26
2023-09-12T22:09:40.672Z,18.23
2023-09-12T22:12:42.428Z,18.18
2023-09-12T22:15:44.189Z,18.12
2023-09-12T22:18:46.045Z,18.08
2023-09-12T22:21:47.892Z,18.02
2023-09-12T22:24:53.160Z,17.94
2023-09-12T22:27:54.824Z,17.89
2023-09-12T22:30:56.549Z,17.88
2023-09-12T22:33:58.504Z,17.84
2023-09-12T22:37:00.224Z,17.74
2023-09-12T22:40:02.049Z,17.65
2023-09-12T22:43:04.007Z,17.58
2023-09-12T22:46:05.722Z,17.49
2023-09-12T22:49:07.418Z,17.45
2023-09-12T22:52:09.205Z,17.35
2023-09-12T22:55:10.959Z,17.32
2023-09-12T22:58:12.948Z,17.31
2023-09-12T23:01:14.717Z,17.25
2023-09-12T23:04:19.743Z,17.18
2023-09-12T23:07:21.449Z,17.20
2023-09-12T23:10:23.114Z,17.13
2023-09-12T23:13:24.742Z,17.07
2023-09-12T23:16:26.446Z,17.08
2023-09-12T23:19:28.184Z,17.22
2023-09-12T23:22:29.772Z,17.21
2023-09-12T23:25:31.366Z,17.15
2023-09-12T23:28:33.228Z,17.13
2023-09-12T23:31:34.974Z,17.09
2023-09-12T23:34:36.612Z,17.09
2023-09-12T23:37:38.223Z,17.25
2023-09-12T23:40:40.913Z,17.12
2023-09-12T23:43:43.380Z,17.06
2023-09-12T23:46:45.473Z,17.09
2023-09-12T23:49:47.140Z,17.05
2023-09-12T23:52:48.781Z,17.00
2023-09-12T23:55:50.894Z,16.90
2023-09-12T23:58:52.534Z,16.86
